sensor_id;sensor_type;location;lat;lon;timestamp;pressure;altitude;pressure_sealevel;temperature;humidity
35658;BME280;21126;48.308;11.750;2022-08-18T00:00:17;95898.94;;;25.74;66.39
35658;BME280;21126;48.308;11.750;2022-08-18T00:02:46;95905.91;;;25.75;67.16
35658;BME280;21126;48.308;11.750;2022-08-18T00:05:27;95924.50;;;25.60;67.51
35658;BME280;21126;48.308;11.750;2022-08-18T00:07:57;95921.47;;;25.33;69.08
35658;BME280;21126;48.308;11.750;2022-08-18T00:10:25;95928.66;;;25.10;70.15
35658;BME280;21126;48.308;11.750;2022-08-18T00:12:52;95931.47;;;24.93;71.89
35658;BME280;21126;48.308;11.750;2022-08-18T00:15:27;95930.56;;;24.86;72.52
35658;BME280;21126;48.308;11.750;2022-08-18T00:17:54;95940.06;;;24.95;71.15
35658;BME280;21126;48.308;11.750;2022-08-18T00:20:23;95935.50;;;25.04;70.83
35658;BME280;21126;48.308;11.750;2022-08-18T00:22:51;95936.81;;;25.08;70.53
35658;BME280;21126;48.308;11.750;2022-08-18T00:25:19;95947.69;;;25.13;69.49
35658;BME280;21126;48.308;11.750;2022-08-18T00:27:47;95964.25;;;25.15;68.44
35658;BME280;21126;48.308;11.750;2022-08-18T00:30:18;95959.50;;;25.26;66.96
35658;BME280;21126;48.308;11.750;2022-08-18T00:32:54;95959.47;;;25.34;66.23
35658;BME280;21126;48.308;11.750;2022-08-18T00:37:57;95956.28;;;25.38;66.96
35658;BME280;21126;48.308;11.750;2022-08-18T00:40:31;95938.13;;;25.42;66.56
35658;BME280;21126;48.308;11.750;2022-08-18T00:43:07;95934.00;;;25.39;67.41
35658;BME280;21126;48.308;11.750;2022-08-18T00:45:38;95927.63;;;25.34;68.23
35658;BME280;21126;48.308;11.750;2022-08-18T00:48:07;95931.28;;;25.33;68.00
35658;BME280;21126;48.308;11.750;2022-08-18T00:50:54;95939.28;;;25.24;68.78
35658;BME280;21126;48.308;11.750;2022-08-18T00:53:33;95945.59;;;25.23;68.76
35658;BME280;21126;48.308;11.750;2022-08-18T00:56:10;95953.00;;;25.13;69.00
35658;BME280;21126;48.308;11.750;2022-08-18T00:58:45;95957.47;;;24.98;69.45
35658;BME280;21126;48.308;11.750;2022-08-18T01:01:18;95964.75;;;24.96;69.92
35658;BME280;21126;48.308;11.750;2022-08-18T01:03:49;95965.88;;;25.01;69.15
35658;BME280;21126;48.308;11.750;2022-08-18T01:06:27;95965.97;;;25.08;69.31
35658;BME280;21126;48.308;11.750;2022-08-18T01:08:58;95958.84;;;25.23;68.26
35658;BME280;21126;48.308;11.750;2022-08-18T01:11:27;95952.09;;;25.21;68.41
35658;BME280;21126;48.308;11.750;2022-08-18T01:13:54;95947.25;;;25.24;67.55
35658;BME280;21126;48.308;11.750;2022-08-18T01:16:23;95946.44;;;25.24;67.57
35658;BME280;21126;48.308;11.750;2022-08-18T01:19:25;95950.63;;;25.18;68.79
35658;BME280;21126;48.308;11.750;2022-08-18T01:22:24;95951.06;;;25.22;68.75
35658;BME280;21126;48.308;11.750;2022-08-18T01:24:56;95948.16;;;25.17;68.95
35658;BME280;21126;48.308;11.750;2022-08-18T01:27:43;95958.78;;;25.17;69.38
35658;BME280;21126;48.308;11.750;2022-08-18T01:30:15;95962.25;;;25.17;68.22
35658;BME280;21126;48.308;11.750;2022-08-18T01:32:43;95971.13;;;25.24;67.81
35658;BME280;21126;48.308;11.750;2022-08-18T01:35:15;95967.91;;;25.29;67.73
35658;BME280;21126;48.308;11.750;2022-08-18T01:37:43;95959.97;;;25.29;67.81
35658;BME280;21126;48.308;11.750;2022-08-18T01:40:15;95940.47;;;25.22;69.23
35658;BME280;21126;48.308;11.750;2022-08-18T01:43:02;95943.66;;;25.17;69.46
35658;BME280;21126;48.308;11.750;2022-08-18T01:45:30;95944.66;;;25.16;69.64
35658;BME280;21126;48.308;11.750;2022-08-18T01:48:00;95952.09;;;25.21;68.77
35658;BME280;21126;48.308;11.750;2022-08-18T01:50:27;95954.28;;;25.17;68.82
35658;BME280;21126;48.308;11.750;2022-08-18T01:52:55;95947.25;;;25.24;68.91
35658;BME280;21126;48.308;11.750;2022-08-18T01:55:22;95953.13;;;25.35;67.41
35658;BME280;21126;48.308;11.750;2022-08-18T01:57:50;95947.75;;;25.43;67.13
35658;BME280;21126;48.308;11.750;2022-08-18T02:00:17;95946.56;;;25.46;67.38
35658;BME280;21126;48.308;11.750;2022-08-18T02:02:46;95951.41;;;25.42;67.62
35658;BME280;21126;48.308;11.750;2022-08-18T02:05:41;95965.16;;;25.46;67.05
35658;BME280;21126;48.308;11.750;2022-08-18T02:08:09;95960.84;;;25.45;67.36
35658;BME280;21126;48.308;11.750;2022-08-18T02:10:39;95953.88;;;25.44;67.58
35658;BME280;21126;48.308;11.750;2022-08-18T02:13:06;95957.56;;;25.43;67.28
35658;BME280;21126;48.308;11.750;2022-08-18T02:15:34;95941.16;;;25.39;67.68
35658;BME280;21126;48.308;11.750;2022-08-18T02:18:01;95942.81;;;25.40;67.27
35658;BME280;21126;48.308;11.750;2022-08-18T02:20:28;95936.97;;;25.45;66.90
35658;BME280;21126;48.308;11.750;2022-08-18T02:22:54;95924.13;;;25.48;66.54
35658;BME280;21126;48.308;11.750;2022-08-18T02:25:24;95940.34;;;25.53;66.60
35658;BME280;21126;48.308;11.750;2022-08-18T02:27:51;95954.59;;;25.52;66.67
35658;BME280;21126;48.308;11.750;2022-08-18T02:30:19;95960.75;;;25.53;66.85
35658;BME280;21126;48.308;11.750;2022-08-18T02:32:46;95958.91;;;25.53;66.63
35658;BME280;21126;48.308;11.750;2022-08-18T02:35:13;95953.69;;;25.45;67.26
35658;BME280;21126;48.308;11.750;2022-08-18T02:37:41;95942.81;;;25.40;67.16
35658;BME280;21126;48.308;11.750;2022-08-18T02:40:10;95946.66;;;25.37;68.04
35658;BME280;21126;48.308;11.750;2022-08-18T02:42:42;95949.75;;;25.41;67.44
35658;BME280;21126;48.308;11.750;2022-08-18T02:45:11;95956.44;;;25.37;67.63
35658;BME280;21126;48.308;11.750;2022-08-18T02:47:39;95943.81;;;25.39;67.21
35658;BME280;21126;48.308;11.750;2022-08-18T02:50:09;95940.53;;;25.37;67.42
35658;BME280;21126;48.308;11.750;2022-08-18T02:52:37;95939.31;;;25.39;67.15
35658;BME280;21126;48.308;11.750;2022-08-18T02:55:06;95931.34;;;25.39;66.86
35658;BME280;21126;48.308;11.750;2022-08-18T02:57:33;95932.44;;;25.30;67.31
35658;BME280;21126;48.308;11.750;2022-08-18T03:00:00;95942.75;;;25.25;67.20
35658;BME280;21126;48.308;11.750;2022-08-18T03:02:27;95947.06;;;25.26;67.36
35658;BME280;21126;48.308;11.750;2022-08-18T03:04:54;95944.22;;;25.28;67.45
35658;BME280;21126;48.308;11.750;2022-08-18T03:07:21;95947.91;;;25.27;67.28
35658;BME280;21126;48.308;11.750;2022-08-18T03:09:48;95929.97;;;25.29;67.11
35658;BME280;21126;48.308;11.750;2022-08-18T03:12:15;95931.28;;;25.33;66.81
35658;BME280;21126;48.308;11.750;2022-08-18T03:14:42;95928.44;;;25.34;66.77
35658;BME280;21126;48.308;11.750;2022-08-18T03:17:09;95943.88;;;25.31;67.04
35658;BME280;21126;48.308;11.750;2022-08-18T03:19:36;95941.50;;;25.21;67.21
35658;BME280;21126;48.308;11.750;2022-08-18T03:22:03;95941.38;;;25.14;67.52
35658;BME280;21126;48.308;11.750;2022-08-18T03:24:51;95949.16;;;25.16;67.68
35658;BME280;21126;48.308;11.750;2022-08-18T03:27:18;95942.19;;;25.15;67.43
35658;BME280;21126;48.308;11.750;2022-08-18T03:29:45;95945.59;;;25.23;67.09
35658;BME280;21126;48.308;11.750;2022-08-18T03:32:11;95950.38;;;25.28;66.80
35658;BME280;21126;48.308;11.750;2022-08-18T03:34:38;95952.38;;;25.26;66.93
35658;BME280;21126;48.308;11.750;2022-08-18T03:37:05;95939.28;;;25.24;66.71
35658;BME280;21126;48.308;11.750;2022-08-18T03:39:32;95936.81;;;25.23;66.87
35658;BME280;21126;48.308;11.750;2022-08-18T03:41:59;95935.53;;;25.19;66.96
35658;BME280;21126;48.308;11.750;2022-08-18T03:44:34;95932.97;;;25.11;67.29
35658;BME280;21126;48.308;11.750;2022-08-18T03:47:09;95934.97;;;25.09;67.63
35658;BME280;21126;48.308;11.750;2022-08-18T03:49:37;95935.81;;;25.09;67.71
35658;BME280;21126;48.308;11.750;2022-08-18T03:52:08;95941.81;;;25.03;67.58
35658;BME280;21126;48.308;11.750;2022-08-18T03:54:35;95942.19;;;25.00;67.78
35658;BME280;21126;48.308;11.750;2022-08-18T03:57:08;95935.06;;;25.00;68.08
35658;BME280;21126;48.308;11.750;2022-08-18T03:59:35;95937.00;;;25.06;67.46
35658;BME280;21126;48.308;11.750;2022-08-18T04:02:03;95933.78;;;25.11;67.20
35658;BME280;21126;48.308;11.750;2022-08-18T04:04:30;95936.81;;;25.08;67.48
35658;BME280;21126;48.308;11.750;2022-08-18T04:07:02;95931.69;;;25.06;67.62
35658;BME280;21126;48.308;11.750;2022-08-18T04:09:32;95924.91;;;25.04;67.50
35658;BME280;21126;48.308;11.750;2022-08-18T04:12:08;95920.78;;;25.01;67.57
35658;BME280;21126;48.308;11.750;2022-08-18T04:14:46;95918.69;;;24.97;67.61
35658;BME280;21126;48.308;11.750;2022-08-18T04:17:20;95920.88;;;24.93;67.83
35658;BME280;21126;48.308;11.750;2022-08-18T04:19:55;95925.06;;;24.87;67.91
35658;BME280;21126;48.308;11.750;2022-08-18T04:22:22;95935.09;;;24.77;68.65
35658;BME280;21126;48.308;11.750;2022-08-18T04:24:51;95931.97;;;24.74;69.02
35658;BME280;21126;48.308;11.750;2022-08-18T04:27:20;95931.97;;;24.74;68.77
35658;BME280;21126;48.308;11.750;2022-08-18T04:29:47;95934.09;;;24.78;68.55
35658;BME280;21126;48.308;11.750;2022-08-18T04:32:15;95922.97;;;24.83;68.04
35658;BME280;21126;48.308;11.750;2022-08-18T04:34:42;95917.53;;;24.76;68.31
35658;BME280;21126;48.308;11.750;2022-08-18T04:37:09;95908.66;;;24.69;68.51
35658;BME280;21126;48.308;11.750;2022-08-18T04:39:36;95909.66;;;24.68;68.37
35658;BME280;21126;48.308;11.750;2022-08-18T04:42:04;95905.19;;;24.68;68.29
35658;BME280;21126;48.308;11.750;2022-08-18T04:44:31;95917.59;;;24.68;68.45
35658;BME280;21126;48.308;11.750;2022-08-18T04:47:00;95910.66;;;24.67;67.85
35658;BME280;21126;48.308;11.750;2022-08-18T04:49:27;95907.19;;;24.66;68.35
35658;BME280;21126;48.308;11.750;2022-08-18T04:51:56;95904.34;;;24.68;68.33
35658;BME280;21126;48.308;11.750;2022-08-18T04:55:04;95916.72;;;24.76;67.98
35658;BME280;21126;48.308;11.750;2022-08-18T04:57:31;95914.72;;;24.93;66.82
35658;BME280;21126;48.308;11.750;2022-08-18T05:00:01;95916.22;;;25.10;66.04
35658;BME280;21126;48.308;11.750;2022-08-18T05:02:28;95915.34;;;25.18;65.72
35658;BME280;21126;48.308;11.750;2022-08-18T05:04:58;95920.72;;;25.10;66.21
35658;BME280;21126;48.308;11.750;2022-08-18T05:07:27;95926.63;;;24.97;66.96
35658;BME280;21126;48.308;11.750;2022-08-18T05:09:53;95924.16;;;24.95;67.39
35658;BME280;21126;48.308;11.750;2022-08-18T05:12:21;95925.81;;;24.96;67.12
35658;BME280;21126;48.308;11.750;2022-08-18T05:14:51;95929.00;;;24.92;67.77
35658;BME280;21126;48.308;11.750;2022-08-18T05:17:19;95934.31;;;24.92;67.91
35658;BME280;21126;48.308;11.750;2022-08-18T05:19:46;95946.66;;;24.84;68.31
35658;BME280;21126;48.308;11.750;2022-08-18T05:22:15;95943.16;;;24.84;68.32
35658;BME280;21126;48.308;11.750;2022-08-18T05:24:54;95949.38;;;24.91;68.48
35658;BME280;21126;48.308;11.750;2022-08-18T05:27:20;95942.19;;;25.00;68.48
35658;BME280;21126;48.308;11.750;2022-08-18T05:29:47;95940.38;;;25.15;67.83
35658;BME280;21126;48.308;11.750;2022-08-18T05:32:17;95928.97;;;25.30;66.96
35658;BME280;21126;48.308;11.750;2022-08-18T05:35:21;95932.84;;;25.42;66.30
35658;BME280;21126;48.308;11.750;2022-08-18T05:41:10;95949.66;;;25.64;64.98
35658;BME280;21126;48.308;11.750;2022-08-18T05:43:43;95951.66;;;25.77;64.62
35658;BME280;21126;48.308;11.750;2022-08-18T05:46:21;95953.47;;;25.91;63.94
35658;BME280;21126;48.308;11.750;2022-08-18T05:48:51;95964.47;;;26.03;64.08
35658;BME280;21126;48.308;11.750;2022-08-18T05:51:30;95962.53;;;26.12;63.20
35658;BME280;21126;48.308;11.750;2022-08-18T05:54:01;95953.81;;;26.18;62.56
35658;BME280;21126;48.308;11.750;2022-08-18T05:56:50;95942.69;;;26.30;62.74
35658;BME280;21126;48.308;11.750;2022-08-18T05:59:28;95947.63;;;26.33;62.57
35658;BME280;21126;48.308;11.750;2022-08-18T06:05:07;95963.78;;;26.31;62.25
35658;BME280;21126;48.308;11.750;2022-08-18T06:07:44;95976.53;;;26.36;62.06
35658;BME280;21126;48.308;11.750;2022-08-18T06:10:13;95983.91;;;26.40;61.93
35658;BME280;21126;48.308;11.750;2022-08-18T06:12:48;95993.97;;;26.45;61.21
35658;BME280;21126;48.308;11.750;2022-08-18T06:25:12;95971.44;;;26.41;60.73
35658;BME280;21126;48.308;11.750;2022-08-18T06:28:02;95974.72;;;26.43;60.55
35658;BME280;21126;48.308;11.750;2022-08-18T06:30:54;95977.75;;;26.40;60.81
35658;BME280;21126;48.308;11.750;2022-08-18T06:34:20;95981.63;;;26.37;61.09
35658;BME280;21126;48.308;11.750;2022-08-18T06:36:54;95984.03;;;26.32;61.24
35658;BME280;21126;48.308;11.750;2022-08-18T06:41:54;95972.97;;;26.29;61.73
35658;BME280;21126;48.308;11.750;2022-08-18T06:44:28;95972.13;;;26.28;62.53
35658;BME280;21126;48.308;11.750;2022-08-18T06:47:11;95970.75;;;26.32;62.88
35658;BME280;21126;48.308;11.750;2022-08-18T06:55:11;95964.38;;;25.97;65.23
35658;BME280;21126;48.308;11.750;2022-08-18T06:57:58;95966.03;;;25.83;66.17
35658;BME280;21126;48.308;11.750;2022-08-18T07:00:33;95967.75;;;25.90;66.28
35658;BME280;21126;48.308;11.750;2022-08-18T07:03:15;95960.81;;;25.74;67.35
35658;BME280;21126;48.308;11.750;2022-08-18T07:06:04;95957.81;;;25.63;68.22
35658;BME280;21126;48.308;11.750;2022-08-18T07:08:37;95946.66;;;25.52;69.11
35658;BME280;21126;48.308;11.750;2022-08-18T07:13:58;95937.69;;;25.38;70.05
35658;BME280;21126;48.308;11.750;2022-08-18T07:16:43;95927.25;;;25.37;69.42
35658;BME280;21126;48.308;11.750;2022-08-18T07:19:30;95921.47;;;25.48;68.45
35658;BME280;21126;48.308;11.750;2022-08-18T07:22:13;95923.88;;;25.43;69.51
35658;BME280;21126;48.308;11.750;2022-08-18T07:24:46;95923.50;;;25.46;69.41
35658;BME280;21126;48.308;11.750;2022-08-18T07:27:17;95928.59;;;25.63;68.51
35658;BME280;21126;48.308;11.750;2022-08-18T07:30:11;95927.72;;;25.70;67.94
35658;BME280;21126;48.308;11.750;2022-08-18T07:32:47;95934.75;;;25.78;67.68
35658;BME280;21126;48.308;11.750;2022-08-18T07:35:33;95949.91;;;25.84;67.05
35658;BME280;21126;48.308;11.750;2022-08-18T07:38:34;95951.28;;;25.80;69.80
35658;BME280;21126;48.308;11.750;2022-08-18T07:41:21;95954.31;;;25.77;70.17
35658;BME280;21126;48.308;11.750;2022-08-18T07:47:12;95939.56;;;26.41;69.23
35658;BME280;21126;48.308;11.750;2022-08-18T07:49:42;95953.19;;;26.74;68.27
35658;BME280;21126;48.308;11.750;2022-08-18T07:52:43;95948.44;;;27.20;66.06
35658;BME280;21126;48.308;11.750;2022-08-18T07:58:24;95930.69;;;26.99;66.50
35658;BME280;21126;48.308;11.750;2022-08-18T08:01:04;95924.13;;;27.29;65.85
35658;BME280;21126;48.308;11.750;2022-08-18T08:03:53;95939.47;;;27.27;65.87
35658;BME280;21126;48.308;11.750;2022-08-18T08:06:42;95923.75;;;27.33;65.64
35658;BME280;21126;48.308;11.750;2022-08-18T08:10:15;95921.09;;;27.33;65.58
35658;BME280;21126;48.308;11.750;2022-08-18T08:16:11;95923.81;;;27.11;66.45
35658;BME280;21126;48.308;11.750;2022-08-18T08:19:32;95930.00;;;27.18;65.49
35658;BME280;21126;48.308;11.750;2022-08-18T08:25:28;95930.81;;;27.19;65.99
35658;BME280;21126;48.308;11.750;2022-08-18T08:31:15;95917.31;;;27.20;65.32
35658;BME280;21126;48.308;11.750;2022-08-18T08:36:44;95917.13;;;27.50;63.26
35658;BME280;21126;48.308;11.750;2022-08-18T08:42:18;95912.13;;;27.40;63.88
35658;BME280;21126;48.308;11.750;2022-08-18T08:45:08;95899.88;;;27.39;64.16
35658;BME280;21126;48.308;11.750;2022-08-18T08:50:37;95880.91;;;27.62;63.65
35658;BME280;21126;48.308;11.750;2022-08-18T08:53:35;95887.91;;;27.70;63.34
35658;BME280;21126;48.308;11.750;2022-08-18T08:56:12;95889.28;;;27.59;63.17
35658;BME280;21126;48.308;11.750;2022-08-18T08:58:48;95883.13;;;27.52;63.69
35658;BME280;21126;48.308;11.750;2022-08-18T09:04:29;95880.66;;;27.51;63.47
35658;BME280;21126;48.308;11.750;2022-08-18T09:10:11;95884.47;;;27.35;64.17
35658;BME280;21126;48.308;11.750;2022-08-18T09:21:53;95874.47;;;27.43;63.57
35658;BME280;21126;48.308;11.750;2022-08-18T09:24:29;95867.94;;;27.46;63.84
35658;BME280;21126;48.308;11.750;2022-08-18T09:29:53;95887.41;;;27.46;63.75
35658;BME280;21126;48.308;11.750;2022-08-18T09:35:45;95882.16;;;27.31;61.94
35658;BME280;21126;48.308;11.750;2022-08-18T09:38:27;95895.47;;;27.31;60.78
35658;BME280;21126;48.308;11.750;2022-08-18T09:41:47;95895.19;;;27.13;61.37
35658;BME280;21126;48.308;11.750;2022-08-18T09:54:11;95867.78;;;26.91;61.01
35658;BME280;21126;48.308;11.750;2022-08-18T10:10:59;95867.56;;;26.86;60.47
35658;BME280;21126;48.308;11.750;2022-08-18T10:13:58;95873.66;;;26.79;60.56
35658;BME280;21126;48.308;11.750;2022-08-18T10:16:48;95871.63;;;26.82;60.71
35658;BME280;21126;48.308;11.750;2022-08-18T10:23:09;95879.22;;;26.85;60.30
35658;BME280;21126;48.308;11.750;2022-08-18T10:25:43;95876.56;;;26.85;60.14
35658;BME280;21126;48.308;11.750;2022-08-18T10:31:17;95881.44;;;26.81;60.06
35658;BME280;21126;48.308;11.750;2022-08-18T10:34:03;95870.50;;;26.69;60.22
35658;BME280;21126;48.308;11.750;2022-08-18T10:36:51;95872.81;;;26.79;59.67
35658;BME280;21126;48.308;11.750;2022-08-18T10:39:43;95876.56;;;26.85;59.63
35658;BME280;21126;48.308;11.750;2022-08-18T10:42:23;95881.25;;;26.83;59.50
35658;BME280;21126;48.308;11.750;2022-08-18T10:51:19;95868.75;;;26.83;59.60
35658;BME280;21126;48.308;11.750;2022-08-18T10:54:07;95850.69;;;26.72;59.66
35658;BME280;21126;48.308;11.750;2022-08-18T10:56:52;95854.78;;;26.74;60.04
35658;BME280;21126;48.308;11.750;2022-08-18T10:59:41;95858.91;;;26.77;60.04
35658;BME280;21126;48.308;11.750;2022-08-18T11:02:35;95844.56;;;26.78;60.86
35658;BME280;21126;48.308;11.750;2022-08-18T11:05:10;95839.44;;;26.76;60.85
35658;BME280;21126;48.308;11.750;2022-08-18T11:07:39;95841.78;;;26.86;61.06
35658;BME280;21126;48.308;11.750;2022-08-18T11:10:42;95843.91;;;26.98;60.73
35658;BME280;21126;48.308;11.750;2022-08-18T11:17:14;95842.31;;;27.03;61.08
35658;BME280;21126;48.308;11.750;2022-08-18T11:19:47;95846.03;;;27.09;60.67
35658;BME280;21126;48.308;11.750;2022-08-18T11:22:32;95839.09;;;27.14;61.00
35658;BME280;21126;48.308;11.750;2022-08-18T11:25:16;95839.72;;;27.17;60.46
35658;BME280;21126;48.308;11.750;2022-08-18T11:27:47;95838.72;;;27.18;60.38
35658;BME280;21126;48.308;11.750;2022-08-18T11:30:14;95828.69;;;27.20;60.62
35658;BME280;21126;48.308;11.750;2022-08-18T11:32:44;95828.06;;;27.24;60.46
35658;BME280;21126;48.308;11.750;2022-08-18T11:35:30;95818.28;;;27.25;60.66
35658;BME280;21126;48.308;11.750;2022-08-18T11:38:03;95814.56;;;27.26;60.25
35658;BME280;21126;48.308;11.750;2022-08-18T11:40:39;95808.03;;;27.28;60.51
35658;BME280;21126;48.308;11.750;2022-08-18T11:43:35;95803.34;;;27.30;60.21
35658;BME280;21126;48.308;11.750;2022-08-18T11:46:28;95790.66;;;27.33;60.26
35658;BME280;21126;48.308;11.750;2022-08-18T11:49:10;95793.31;;;27.33;60.34
35658;BME280;21126;48.308;11.750;2022-08-18T11:51:56;95791.31;;;27.35;60.65
35658;BME280;21126;48.308;11.750;2022-08-18T11:54:48;95783.75;;;27.38;60.61
35658;BME280;21126;48.308;11.750;2022-08-18T11:57:38;95772.25;;;27.38;60.42
35658;BME280;21126;48.308;11.750;2022-08-18T12:06:25;95741.97;;;27.39;60.75
35658;BME280;21126;48.308;11.750;2022-08-18T12:09:00;95731.13;;;27.34;61.10
35658;BME280;21126;48.308;11.750;2022-08-18T12:11:36;95725.59;;;27.35;60.91
35658;BME280;21126;48.308;11.750;2022-08-18T12:14:18;95713.31;;;27.34;61.13
35658;BME280;21126;48.308;11.750;2022-08-18T12:17:07;95711.88;;;27.38;61.19
35658;BME280;21126;48.308;11.750;2022-08-18T12:19:34;95708.22;;;27.39;61.17
35658;BME280;21126;48.308;11.750;2022-08-18T12:22:15;95689.38;;;27.41;60.88
35658;BME280;21126;48.308;11.750;2022-08-18T12:24:44;95696.97;;;27.44;60.92
35658;BME280;21126;48.308;11.750;2022-08-18T12:27:17;95695.91;;;27.45;61.01
35658;BME280;21126;48.308;11.750;2022-08-18T12:29:49;95709.22;;;27.45;61.39
35658;BME280;21126;48.308;11.750;2022-08-18T12:32:16;95730.50;;;27.45;60.91
35658;BME280;21126;48.308;11.750;2022-08-18T12:35:06;95744.66;;;27.45;61.14
35658;BME280;21126;48.308;11.750;2022-08-18T12:37:36;95742.22;;;27.44;61.18
35658;BME280;21126;48.308;11.750;2022-08-18T12:40:24;95738.31;;;27.40;59.63
35658;BME280;21126;48.308;11.750;2022-08-18T12:42:52;95731.03;;;27.20;58.76
35658;BME280;21126;48.308;11.750;2022-08-18T12:45:22;95724.47;;;27.16;58.62
35658;BME280;21126;48.308;11.750;2022-08-18T12:47:50;95715.00;;;27.07;58.51
35658;BME280;21126;48.308;11.750;2022-08-18T12:50:18;95705.41;;;27.06;57.84
35658;BME280;21126;48.308;11.750;2022-08-18T12:52:45;95702.97;;;27.04;58.16
35658;BME280;21126;48.308;11.750;2022-08-18T12:55:12;95713.78;;;27.03;57.75
35658;BME280;21126;48.308;11.750;2022-08-18T12:58:03;95730.97;;;27.00;58.71
35658;BME280;21126;48.308;11.750;2022-08-18T13:00:56;95737.31;;;26.99;58.07
35658;BME280;21126;48.308;11.750;2022-08-18T13:03:23;95737.91;;;26.94;58.11
35658;BME280;21126;48.308;11.750;2022-08-18T13:05:53;95727.19;;;26.81;57.83
35658;BME280;21126;48.308;11.750;2022-08-18T13:08:21;95724.91;;;26.78;58.14
35658;BME280;21126;48.308;11.750;2022-08-18T13:10:59;95724.56;;;26.88;57.60
35658;BME280;21126;48.308;11.750;2022-08-18T13:13:41;95712.94;;;26.95;57.31
35658;BME280;21126;48.308;11.750;2022-08-18T13:16:10;95705.97;;;26.94;57.32
35658;BME280;21126;48.308;11.750;2022-08-18T13:18:56;95705.94;;;26.88;57.22
35658;BME280;21126;48.308;11.750;2022-08-18T13:21:25;95700.66;;;26.94;56.83
35658;BME280;21126;48.308;11.750;2022-08-18T13:24:05;95697.34;;;26.92;57.22
35658;BME280;21126;48.308;11.750;2022-08-18T13:26:40;95680.13;;;26.82;57.33
35658;BME280;21126;48.308;11.750;2022-08-18T13:29:12;95682.63;;;26.90;56.95
35658;BME280;21126;48.308;11.750;2022-08-18T13:31:39;95676.72;;;27.01;56.80
35658;BME280;21126;48.308;11.750;2022-08-18T13:34:14;95674.88;;;26.88;57.13
35658;BME280;21126;48.308;11.750;2022-08-18T13:36:46;95678.09;;;26.77;57.29
35658;BME280;21126;48.308;11.750;2022-08-18T13:39:17;95666.41;;;26.78;57.41
35658;BME280;21126;48.308;11.750;2022-08-18T13:41:47;95669.13;;;26.91;57.65
35658;BME280;21126;48.308;11.750;2022-08-18T13:44:15;95672.41;;;26.93;57.28
35658;BME280;21126;48.308;11.750;2022-08-18T13:46:46;95669.75;;;26.93;58.08
35658;BME280;21126;48.308;11.750;2022-08-18T13:49:16;95672.00;;;26.96;58.04
35658;BME280;21126;48.308;11.750;2022-08-18T13:51:55;95679.13;;;26.89;57.75
35658;BME280;21126;48.308;11.750;2022-08-18T13:54:29;95681.84;;;27.03;57.08
35658;BME280;21126;48.308;11.750;2022-08-18T13:57:02;95686.09;;;26.90;57.05
35658;BME280;21126;48.308;11.750;2022-08-18T13:59:29;95693.25;;;26.83;57.67
35658;BME280;21126;48.308;11.750;2022-08-18T14:02:07;95688.47;;;26.72;57.98
35658;BME280;21126;48.308;11.750;2022-08-18T14:04:36;95692.34;;;26.69;57.79
35658;BME280;21126;48.308;11.750;2022-08-18T14:07:05;95691.78;;;26.74;57.82
35658;BME280;21126;48.308;11.750;2022-08-18T14:09:38;95690.13;;;26.73;58.02
35658;BME280;21126;48.308;11.750;2022-08-18T14:12:18;95679.41;;;26.66;58.07
35658;BME280;21126;48.308;11.750;2022-08-18T14:14:53;95673.28;;;26.66;58.37
35658;BME280;21126;48.308;11.750;2022-08-18T14:17:25;95664.06;;;26.61;58.82
35658;BME280;21126;48.308;11.750;2022-08-18T14:19:53;95655.81;;;26.50;59.17
35658;BME280;21126;48.308;11.750;2022-08-18T14:22:49;95642.88;;;26.68;59.22
35658;BME280;21126;48.308;11.750;2022-08-18T14:25:35;95628.56;;;26.76;58.32
35658;BME280;21126;48.308;11.750;2022-08-18T14:28:22;95617.97;;;26.89;58.26
35658;BME280;21126;48.308;11.750;2022-08-18T14:30:52;95606.31;;;26.90;57.96
35658;BME280;21126;48.308;11.750;2022-08-18T14:33:25;95604.25;;;26.92;57.98
35658;BME280;21126;48.308;11.750;2022-08-18T14:36:13;95593.03;;;27.04;57.96
35658;BME280;21126;48.308;11.750;2022-08-18T14:38:41;95575.22;;;26.91;57.92
35658;BME280;21126;48.308;11.750;2022-08-18T14:41:12;95578.28;;;26.88;58.02
35658;BME280;21126;48.308;11.750;2022-08-18T14:43:41;95570.09;;;26.83;59.03
35658;BME280;21126;48.308;11.750;2022-08-18T14:46:30;95575.63;;;26.81;59.47
35658;BME280;21126;48.308;11.750;2022-08-18T14:48:59;95573.56;;;26.83;59.27
35658;BME280;21126;48.308;11.750;2022-08-18T14:51:30;95577.63;;;26.79;59.62
35658;BME280;21126;48.308;11.750;2022-08-18T14:54:00;95585.22;;;26.75;59.39
35658;BME280;21126;48.308;11.750;2022-08-18T14:56:30;95574.56;;;26.75;60.13
35658;BME280;21126;48.308;11.750;2022-08-18T14:59:09;95580.72;;;26.89;59.51
35658;BME280;21126;48.308;11.750;2022-08-18T15:01:39;95577.50;;;27.01;58.47
35658;BME280;21126;48.308;11.750;2022-08-18T15:04:08;95584.03;;;26.98;58.44
35658;BME280;21126;48.308;11.750;2022-08-18T15:06:46;95587.94;;;26.95;58.01
35658;BME280;21126;48.308;11.750;2022-08-18T15:09:27;95583.41;;;26.96;58.22
35658;BME280;21126;48.308;11.750;2022-08-18T15:11:58;95578.91;;;26.96;57.68
35658;BME280;21126;48.308;11.750;2022-08-18T15:14:30;95573.78;;;26.88;58.08
35658;BME280;21126;48.308;11.750;2022-08-18T15:17:02;95579.50;;;26.85;58.22
35658;BME280;21126;48.308;11.750;2022-08-18T15:19:40;95575.22;;;26.91;58.22
35658;BME280;21126;48.308;11.750;2022-08-18T15:22:26;95584.81;;;26.85;58.31
35658;BME280;21126;48.308;11.750;2022-08-18T15:25:14;95581.50;;;26.76;58.78
35658;BME280;21126;48.308;11.750;2022-08-18T15:28:00;95585.22;;;26.82;58.64
35658;BME280;21126;48.308;11.750;2022-08-18T15:30:27;95582.75;;;26.81;58.79
35658;BME280;21126;48.308;11.750;2022-08-18T15:32:54;95588.72;;;26.83;58.81
35658;BME280;21126;48.308;11.750;2022-08-18T15:35:24;95588.91;;;26.81;59.03